AirNav   Everest Fuels
 
 580 users online  

AL35 Mc Ginnis Airport
Loxley, Alabama, USA

GOING TO LOXLEY?


FAA INFORMATION EFFECTIVE 31 JANUARY 2019

Location

FAA Identifier: AL35
Lat/Long: 30-37-10.6910N / 087-42-15.9570W
30-37.178183N / 087-42.265950W
30.6196364 / -87.7044325
(estimated)
Elevation: 125 ft. / 38 m (estimated)
Variation: 01E (1985)
From city: 3 miles E of LOXLEY, AL
Time zone: UTC -6 (UTC -5 during Daylight Saving Time)
Zip code: 36551

Airport Operations

Airport use: Private use. Permission required prior to landing
Activation date: 11/1989
Control tower: no
ARTCC: JACKSONVILLE CENTER
FSS: ANNISTON FLIGHT SERVICE STATION
Attendance: UNATNDD
Segmented circle: no

Airport Communications

UNICOM: 122.8
WX AWOS-3PT at CQF (13 nm SW): 118.425 (251-928-3242)
WX ASOS at BFM (19 nm W): PHONE 251-431-6762
WX AWOS-3PT at JKA (20 nm S): 134.525 (251-968-7581)

Nearby radio navigation aids

VOR radial/distance  VOR name  Freq  Var
BFMr085/18.1BROOKLEY VORTAC112.8004E
NUNr294/(21.0)SAUFLEY VOR108.8001E
SJIr096/34.4SEMMES VORTAC115.3005E

 
NDB name  Hdg/Dist  Freq  Var  ID
PICKENS294/29.332602WPKZ .--. -.- --..
WISLE106/32.024801WMOB -- --- -...

Airport Services

Runway Information

Runway 3/21

Dimensions: 1450 x 50 ft. / 442 x 15 m
Surface: turf
RUNWAY 3  RUNWAY 21
Traffic pattern: leftleft
Obstructions: nonepline

Airport Ownership and Management from official FAA records

Ownership: Privately-owned
Owner: J. MC GINNIS
124 MEADOW WOOD LOOP
DAPHNE, AL 36526
Phone 205-626-9558
Manager: J. MC GINNIS
124 MEADOW WOOD LOOP
DAPHNE, AL 36526
Phone 205-626-9558

Airport Operational Statistics

Aircraft based on the field: 1
Single engine airplanes: 1
    

Instrument Procedures

There are no published instrument procedures at AL35.

Some nearby airports with instrument procedures:

5R4 - Foley Municipal Airport (12 nm S)
KCQF - H L Sonny Callahan Airport (13 nm SW)
1R8 - Bay Minette Municipal Airport (16 nm N)
KBFM - Mobile Downtown Airport (19 nm W)
KJKA - Jack Edwards National Airport (20 nm S)
 
Loc | Ops | Rwys | IFR | FBO | Links
Com | Nav | Svcs | Stats | Notes

Continental Motors
AirBoss

 
Area around AL35 (Mc Ginnis Airport)
 
Road maps at: MapQuest Bing Google
 
Aerial photo
No photo
 
Sectional chart

 
Airport distance calculator
Flying to Mc Ginnis Airport? Find the distance to fly.

From to AL35

Sunrise and sunset
Times for 22-Feb-2019
 Local
(UTC-6)
 Zulu
(UTC)
Morning civil twilight06:0112:01
Sunrise06:2612:26
Sunset17:4323:43
Evening civil twilight18:0700:07

Current date and time
Zulu (UTC)  23-Feb-2019 04:43:31
Local (UTC-6)  22-Feb-2019 22:43:31
 
METAR
KCQF 
13nm SW 
230415Z AUTO 14006KT 1 1/2SM BR OVC003 21/21 A3009 RMK AO2
KBFM 
19nm W 
230353Z AUTO 14005KT 3/4SM BR VV002 21/21 A3009 RMK AO2 SLP189 T02060206
KJKA 
20nm S 
230415Z 12008KT 3/4SM BR OVC002 A3010 RMK AO2
KNPA 
26nm SE 
230356Z AUTO 12008KT 1/2SM FG VV002 20/20 A3010 RMK AO2 SLP193 T02000200
TAF
KBFM 
19nm W 
222136Z 2222/2318 16008KT P6SM OVC005 FM230000 16010KT 4SM BR BKN010 BKN250 FM230300 14005KT 2SM BR OVC003 FM230600 13005KT 1/2SM FG VV002 FM231600 17012G16KT 4SM BR BKN007
NOTAMs
Click for the latest NOTAMs
NOTAMs are issued by the DoD/FAA and will open in a separate window not controlled by AirNav.

 

 
 

Would you like to see your business listed on this page?

 If your business provides an interesting product or service to pilots, flight crews, aircraft, or users of the Mc Ginnis Airport, you should consider listing it here.  To start the listing process, click on the button below
 
Add a business
 

Other Pages about Mc Ginnis Airport

Update a link
 
Copyright © AirNav, LLC. All rights reserved. Privacy Policy  Contact